Terminal Aerodrome Forecast
Issued by NWS Shreveport, LA

Home | Current Version | Previous Version | Text Only | Print | Product List | Glossary On
Versions: 1 2 3 4 5 6 7 8 9 10 11 12 13 14 15 16 17 18 19 20 21 22
087
FTUS44 KSHV 251143
TAFSHV
TAF
KSHV 251143Z 2512/2612 23008KT P6SM FEW025 SCT030
     FM251500 27012KT P6SM SCT035
     FM260000 VRB03KT P6SM SKC=

USA.gov is the U.S. government's official web portal to all federal, state and local government web resources and services.